首页
METAR-TAF:

METAR-TAF

机场 :

帕波, 匈牙利

纬度: 47-12N, 经度: 017-30E, 海拔: 145米

当前天气观测

该预报发布于41分钟前的22:45 UTC
风速2节,风向北转西北
温度 -6°C
湿度 100%
气压 1038 hPa
能見度: 0100
冻雾

METAR: LHPA 212245Z 34002KT 0100 R16/0400U FZFG VV001 M06/M06 Q1038 NOSIG RMK RED

时间: 00:26 (23:26 UTC)

预报

该预报发布于3小时和39分钟前的19:47 UTC
预报有效从21日的 19点(UTC)到 22日的 18点(UTC)
风速3节,风向多变
能見度: 3000
轻雾
短暂存在
从 21日的 20点(UTC)到 22日的 08点(UTC)
能見度: 0800
阴天层高于200英尺
冻雾
几率 30% :
短暂存在
从 21日的 21点(UTC)到 22日的 07点(UTC)
能見度: 0350
层高于100英尺
冻雾, (小) 冻, 毛毛雨
成为
从 22日的 09点(UTC)到 22日的 12点(UTC)
能見度: 4000
多云层高于600英尺
轻雾
成为
从 22日的 12点(UTC)到 22日的 15点(UTC)
能見度: 8000
散云层高于1000英尺
成为
从 22日的 15点(UTC)到 22日的 18点(UTC)
风速9节,风向北转西北
多云层高于4000英尺

TAF: LHPA 211947Z 2119/2218 VRB03KT 3000 BR NSC TEMPO 2120/2208 0800 FZFG OVC002 PROB30 TEMPO 2121/2207 0350 FZFG -FZDZ VV001 BECMG 2209/2212 4000 BR BKN006 BECMG 2212/2215 8000 NSW SCT010 BECMG 2215/2218 33009KT BKN040

超过4000个机场的气象观测和天气预报(METAR&TAF报告)。

可查询的气象台以黄色和红色小点在地图上表示。

将鼠标移到小点上方,可查看气象台名称。

然后点击查看天气观测和预报。

如需切换地图:点击带黑十字的绿色按钮放大地图;点击带横线的绿色按钮缩小地图;或者点击绿色箭头查看邻近地区的地图。


METAR-TAF: